Alma, GA

6:06 PM EST on December 08, 2016 (GMT -0500)
Appling | | Change Station
Active Advisory: Freeze Watch

Elev 203 ft 31.78 °N, 82.38 °W | Updated 0 second ago

Clear
Clear
55.4 °F
Feels Like 55.4 °F
N
3.8
Wind Variable Wind from North
Gusts 5.4 mph

Today
High -- | Low -- °F
--% Chance of Precip.
Yesterday
High -- | Low -- °F
Precip. -- in
Pressure 30.23 in
Visibility 10.0 miles
Clouds Clear
Dew Point 40 °F
Humidity 56%
Rainfall 0.00 in
Snow Depth Not available.
7:17 AM 5:26 PM
Waxing Gibbous, 67% visible
METAR KDQH 082255Z AUTO 34008KT 10SM CLR 14/00 A3023 RMK AO2
Pressure 30.23 in
Visibility 10.0 miles
Clouds Clear
Dew Point 40 °F
Humidity 56%
Rainfall 0.00 in
Snow Depth Not available.
7:17 AM 5:26 PM
Waxing Gibbous, 67% visible
METAR KDQH 082255Z AUTO 34008KT 10SM CLR 14/00 A3023 RMK AO2

10-Day Weather Forecast

Almanac

Astronomy

Dec. 08, 2016 Rise Set
Actual Time
Civil Twilight
Nautical Twilight
Astronomical Twilight
Moon
Length of Visible Light
Length of Day
Tomorrow will be .
, % of the Moon is Illuminated

Today's Extremes

State Highs State Lows

Community

WunderPhotos

Upload Photos

1,956,277 photos uploaded!

WunderBlog® & News

Nearby

Air Quality

  Air Quality AQ Index Pollutant
Not available.

Snow Depth

Station Depth Elevation

Earthquake Activity

City Distance Mag. Time & Date
Minimum magnitude displayed is 2.5.

Coastal Water Temperatures

Place Temperature

Stations

Nearby Weather Stations

Station Location Temp. Windchill Dew Point Humidity Wind Precip. Elev Updated Type
                   

Watches & Warnings

Freeze Watch
Issued: 12:19 PM EST Dec. 8, 2016 – National Weather Service

... Freeze watch in effect from late Friday night through Saturday
morning...

The National Weather Service in Jacksonville has issued a freeze
watch... which is in effect from late Friday night through Saturday
morning.

* Temperature... minimum temperatures will fall at or just below
freezing Friday night with minimum values near 30 degrees.
Durations of sub-freezing temperatures are expected for about 5
to 8 hours across the watch area.

Precautionary/preparedness actions...

A freeze watch means sub-freezing temperatures are possible for
at least 2 hours. Precautions may be required to protect plants,
pets and those sensitive to the cold if a freeze warning is
issued.